createdAt,value
2022-11-23T00:02:21.767Z,59.56
2022-11-23T00:04:50.156Z,59.50
2022-11-23T00:07:17.362Z,59.10
2022-11-23T00:09:44.405Z,59.15
2022-11-23T00:12:11.795Z,60.00
2022-11-23T00:14:38.757Z,59.91
2022-11-23T00:17:05.705Z,59.92
2022-11-23T00:19:33.003Z,59.73
2022-11-23T00:22:02.662Z,60.27
2022-11-23T00:27:59.737Z,60.85
2022-11-23T00:30:29.268Z,60.93
2022-11-23T00:32:57.187Z,61.16
2022-11-23T00:35:28.294Z,61.04
2022-11-23T00:38:07.944Z,60.87
2022-11-23T00:40:34.901Z,61.35
2022-11-23T00:43:01.860Z,61.50
2022-11-23T00:45:29.816Z,61.91
2022-11-23T00:47:56.794Z,61.39
2022-11-23T00:50:23.780Z,61.95
2022-11-23T00:52:50.765Z,61.35
2022-11-23T00:55:19.133Z,61.42
2022-11-23T00:57:46.050Z,61.72
2022-11-23T01:00:13.887Z,62.32
2022-11-23T01:02:40.843Z,62.45
2022-11-23T01:05:08.635Z,62.02
2022-11-23T01:07:35.602Z,62.38
2022-11-23T01:10:02.601Z,62.42
2022-11-23T01:12:30.975Z,62.08
2022-11-23T01:14:57.975Z,61.80
2022-11-23T01:17:24.916Z,61.94
2022-11-23T01:19:51.858Z,62.26
2022-11-23T01:22:20.134Z,62.24
2022-11-23T01:24:47.143Z,62.04
2022-11-23T01:27:14.089Z,62.28
2022-11-23T01:29:42.359Z,62.50
2022-11-23T01:32:09.320Z,62.27
2022-11-23T01:34:36.407Z,61.59
2022-11-23T01:37:03.336Z,61.55
2022-11-23T01:39:30.631Z,62.03
2022-11-23T01:41:57.738Z,61.80
2022-11-23T01:44:28.869Z,61.41
2022-11-23T01:46:59.153Z,61.51
2022-11-23T01:49:33.865Z,61.89
2022-11-23T01:52:08.967Z,61.38
2022-11-23T01:54:44.829Z,61.64
2022-11-23T01:57:18.832Z,61.89
2022-11-23T01:59:47.732Z,61.79
2022-11-23T02:02:17.246Z,61.96
2022-11-23T02:04:49.599Z,62.02
2022-11-23T02:07:19.911Z,62.24
2022-11-23T02:09:55.863Z,61.83
2022-11-23T02:12:23.116Z,62.58
2022-11-23T02:14:51.127Z,62.33
2022-11-23T02:17:21.890Z,61.75
2022-11-23T02:20:04.185Z,61.90
2022-11-23T02:22:47.372Z,62.03
2022-11-23T02:25:27.725Z,61.61
2022-11-23T02:27:57.105Z,61.55
2022-11-23T02:30:24.416Z,62.15
2022-11-23T02:32:51.406Z,61.84
2022-11-23T02:35:18.347Z,61.48
2022-11-23T02:37:45.654Z,61.67
2022-11-23T02:40:25.324Z,61.53
2022-11-23T02:42:52.582Z,61.69
2022-11-23T02:45:31.296Z,61.66
2022-11-23T02:47:58.242Z,61.97
2022-11-23T02:50:25.238Z,61.83
2022-11-23T02:52:52.240Z,62.04
2022-11-23T02:55:19.219Z,62.17
2022-11-23T02:57:46.242Z,61.99
2022-11-23T03:00:14.918Z,62.08
2022-11-23T03:02:43.225Z,62.95
2022-11-23T03:05:10.212Z,63.08
2022-11-23T03:07:43.180Z,63.37
2022-11-23T03:10:10.923Z,63.32
2022-11-23T03:12:37.873Z,63.35
2022-11-23T03:15:06.331Z,63.34
2022-11-23T03:17:33.460Z,63.06
2022-11-23T03:20:01.812Z,63.15
2022-11-23T03:22:28.825Z,63.18
2022-11-23T03:24:57.339Z,62.94
2022-11-23T03:27:24.320Z,62.94
2022-11-23T03:29:51.250Z,63.08
2022-11-23T03:32:18.210Z,63.03
2022-11-23T03:34:45.162Z,62.95
2022-11-23T03:37:13.428Z,63.27
2022-11-23T03:39:45.793Z,63.62
2022-11-23T03:42:14.224Z,63.34
2022-11-23T03:44:41.203Z,63.06
2022-11-23T03:47:08.212Z,63.41
2022-11-23T03:49:35.155Z,63.42
2022-11-23T03:52:02.131Z,63.70
2022-11-23T03:54:30.394Z,63.52
2022-11-23T03:56:57.363Z,63.57
2022-11-23T03:59:24.369Z,63.97
2022-11-23T04:01:51.299Z,63.50
2022-11-23T04:04:21.017Z,64.09
2022-11-23T04:06:48.009Z,64.08
2022-11-23T04:09:15.508Z,64.18
2022-11-23T04:11:43.816Z,64.21
2022-11-23T04:14:10.860Z,64.25
2022-11-23T04:16:37.875Z,63.83
2022-11-23T04:19:04.865Z,64.55
2022-11-23T04:21:31.807Z,64.21
2022-11-23T04:23:58.950Z,64.05
2022-11-23T04:26:25.909Z,64.09
2022-11-23T04:28:54.267Z,64.23
2022-11-23T04:31:21.333Z,64.26
2022-11-23T04:33:48.356Z,63.81
2022-11-23T04:36:15.330Z,64.08
2022-11-23T04:38:42.295Z,64.24
2022-11-23T04:41:10.156Z,63.67
2022-11-23T04:43:37.074Z,63.82
2022-11-23T04:46:05.562Z,63.72
2022-11-23T04:48:32.583Z,63.83
2022-11-23T04:50:59.576Z,63.64
2022-11-23T04:53:26.574Z,63.83
2022-11-23T04:55:53.610Z,64.21
2022-11-23T04:58:20.654Z,64.00
2022-11-23T05:00:50.906Z,63.92
2022-11-23T05:03:19.314Z,64.01
2022-11-23T05:05:46.562Z,63.60
2022-11-23T05:08:13.571Z,63.79
2022-11-23T05:10:40.634Z,63.79
2022-11-23T05:13:07.652Z,63.98
2022-11-23T05:15:34.688Z,63.88
2022-11-23T05:18:02.515Z,63.87
2022-11-23T05:20:30.852Z,63.96
2022-11-23T05:22:57.900Z,63.96
2022-11-23T05:25:25.404Z,64.11
2022-11-23T05:27:52.788Z,63.64
2022-11-23T05:30:23.639Z,63.97
2022-11-23T05:32:50.874Z,63.83
2022-11-23T05:35:18.115Z,64.15
2022-11-23T05:37:46.405Z,63.89
2022-11-23T05:40:13.954Z,63.84
2022-11-23T05:42:41.006Z,63.88
2022-11-23T05:45:11.765Z,63.67
2022-11-23T05:47:39.036Z,63.60
2022-11-23T05:50:07.724Z,63.66
2022-11-23T05:52:34.696Z,63.25
2022-11-23T05:55:03.471Z,63.66
2022-11-23T05:57:30.459Z,63.41
2022-11-23T05:59:57.431Z,63.18
2022-11-23T06:02:24.396Z,63.40
2022-11-23T06:04:51.343Z,63.69
2022-11-23T06:07:18.303Z,63.53
2022-11-23T06:09:45.315Z,63.91
2022-11-23T06:12:13.903Z,63.96
2022-11-23T06:14:40.928Z,64.09
2022-11-23T06:17:07.866Z,63.61
2022-11-23T06:19:35.260Z,63.93
2022-11-23T06:22:02.330Z,63.48
2022-11-23T06:24:30.771Z,63.30
2022-11-23T06:26:57.757Z,63.20
2022-11-23T06:29:26.403Z,63.16
2022-11-23T06:31:54.367Z,62.83
2022-11-23T06:34:21.428Z,62.61
2022-11-23T06:36:48.356Z,62.42
2022-11-23T06:39:17.472Z,62.46
2022-11-23T06:41:44.445Z,62.29
2022-11-23T06:44:11.407Z,62.22
2022-11-23T06:46:39.659Z,62.23
2022-11-23T06:49:06.936Z,62.07
2022-11-23T06:51:33.931Z,61.77
2022-11-23T06:54:00.914Z,61.98
2022-11-23T06:56:27.926Z,61.78
2022-11-23T06:58:54.931Z,61.67
2022-11-23T07:01:22.125Z,61.73
2022-11-23T07:03:50.603Z,61.65
2022-11-23T07:06:18.005Z,61.69
2022-11-23T07:08:45.583Z,61.86
2022-11-23T07:11:12.877Z,61.92
2022-11-23T07:13:40.145Z,61.92
2022-11-23T07:16:07.924Z,61.79
2022-11-23T07:18:34.970Z,61.93
2022-11-23T07:21:03.533Z,62.07
2022-11-23T07:23:30.566Z,61.81
2022-11-23T07:25:57.598Z,61.97
2022-11-23T07:28:24.609Z,61.85
2022-11-23T07:30:54.404Z,61.94
2022-11-23T07:33:21.383Z,62.20
2022-11-23T07:35:48.528Z,62.01
2022-11-23T07:38:17.031Z,61.94
2022-11-23T07:40:44.157Z,62.03
2022-11-23T07:43:11.184Z,62.04
2022-11-23T07:45:39.425Z,61.93
2022-11-23T07:48:08.951Z,62.14
2022-11-23T07:50:42.997Z,62.27
2022-11-23T07:53:10.742Z,61.91
2022-11-23T07:55:39.156Z,61.87
2022-11-23T07:58:06.462Z,61.85
2022-11-23T08:00:33.526Z,61.85
2022-11-23T08:05:48.587Z,61.61
2022-11-23T08:08:16.343Z,61.69
2022-11-23T08:10:49.902Z,61.70
2022-11-23T08:13:20.242Z,61.26
2022-11-23T08:15:53.297Z,61.06
2022-11-23T08:18:20.731Z,61.01
2022-11-23T08:20:48.327Z,61.14
2022-11-23T08:23:18.578Z,61.13
2022-11-23T08:25:47.588Z,61.32
2022-11-23T08:28:15.562Z,61.18
2022-11-23T08:30:42.632Z,61.30
2022-11-23T08:33:10.359Z,61.25
2022-11-23T08:35:39.804Z,61.14
2022-11-23T08:38:09.170Z,60.91
2022-11-23T08:40:37.067Z,60.98
2022-11-23T08:43:06.142Z,60.91
2022-11-23T08:45:33.641Z,60.48
2022-11-23T08:48:01.497Z,60.81
2022-11-23T08:50:29.419Z,60.56
2022-11-23T08:52:56.820Z,60.22
2022-11-23T08:55:24.122Z,60.26
2022-11-23T08:57:54.313Z,60.44
2022-11-23T09:00:23.040Z,60.01
2022-11-23T09:02:50.355Z,60.15
2022-11-23T09:05:17.607Z,59.98
2022-11-23T09:07:45.026Z,60.05
2022-11-23T09:10:17.911Z,59.85
2022-11-23T09:12:46.415Z,59.95
2022-11-23T09:15:13.563Z,59.97
2022-11-23T09:17:42.776Z,60.35
2022-11-23T09:20:11.393Z,60.43
2022-11-23T09:22:39.114Z,60.30
2022-11-23T09:25:08.669Z,60.14
2022-11-23T09:27:36.275Z,60.14
2022-11-23T09:30:04.893Z,60.11
2022-11-23T09:32:33.048Z,60.19
2022-11-23T09:35:01.896Z,59.95
2022-11-23T09:37:29.388Z,59.82
2022-11-23T09:39:56.568Z,59.67
2022-11-23T09:43:08.144Z,59.81
2022-11-23T09:45:46.957Z,59.87
2022-11-23T09:48:48.847Z,59.66
2022-11-23T09:51:20.860Z,59.59
2022-11-23T09:53:55.084Z,59.92
2022-11-23T09:56:30.281Z,59.76
2022-11-23T09:59:01.185Z,59.76
2022-11-23T10:01:30.504Z,59.45
2022-11-23T10:03:58.904Z,59.43
2022-11-23T10:06:31.220Z,58.78
2022-11-23T10:09:18.141Z,58.85
2022-11-23T10:12:14.245Z,58.95
2022-11-23T10:15:01.644Z,58.83
2022-11-23T10:17:50.915Z,58.75
2022-11-23T10:20:37.359Z,58.88
2022-11-23T10:23:17.443Z,59.03
2022-11-23T10:25:50.219Z,57.87
2022-11-23T10:28:21.052Z,58.33
2022-11-23T10:31:01.157Z,57.93
2022-11-23T10:33:34.466Z,58.14
2022-11-23T10:36:01.889Z,57.64
2022-11-23T10:38:34.159Z,57.38
2022-11-23T10:41:06.887Z,57.58
2022-11-23T10:43:45.244Z,57.27
2022-11-23T10:46:32.379Z,57.37
2022-11-23T10:49:18.865Z,57.02
2022-11-23T10:51:53.472Z,57.37
2022-11-23T10:54:27.635Z,57.50
2022-11-23T10:56:56.593Z,57.58
2022-11-23T10:59:36.850Z,57.75
2022-11-23T11:02:18.142Z,57.14
2022-11-23T11:04:46.814Z,57.16
2022-11-23T11:07:28.582Z,57.01
2022-11-23T11:09:59.673Z,57.11
2022-11-23T11:12:29.404Z,57.07
2022-11-23T11:15:11.264Z,56.72
2022-11-23T11:17:41.997Z,56.99
2022-11-23T11:20:32.877Z,56.61
2022-11-23T11:23:04.055Z,56.78
2022-11-23T11:25:37.975Z,56.30
2022-11-23T11:28:25.318Z,56.12
2022-11-23T11:31:11.075Z,56.34
2022-11-23T11:33:50.925Z,56.33
2022-11-23T11:36:18.802Z,56.34
2022-11-23T11:39:15.387Z,56.38
2022-11-23T11:41:44.680Z,56.13
2022-11-23T11:44:20.913Z,56.20
2022-11-23T11:46:58.015Z,56.13
2022-11-23T11:49:31.286Z,55.73
2022-11-23T11:52:08.113Z,55.56
2022-11-23T11:54:44.233Z,54.28
2022-11-23T11:57:21.032Z,54.76
2022-11-23T11:59:52.989Z,54.63
2022-11-23T12:02:26.759Z,54.22
2022-11-23T12:05:07.667Z,54.62
2022-11-23T12:07:42.509Z,54.37
2022-11-23T12:10:18.628Z,54.29
2022-11-23T12:12:50.059Z,54.14
2022-11-23T12:15:47.919Z,53.74
2022-11-23T12:18:32.934Z,53.93
2022-11-23T12:21:05.737Z,54.25
2022-11-23T12:23:59.173Z,54.29
2022-11-23T12:26:42.419Z,53.61
2022-11-23T12:29:46.066Z,52.50
2022-11-23T12:32:30.859Z,53.02
2022-11-23T12:35:24.582Z,53.25
2022-11-23T12:38:12.169Z,51.74
2022-11-23T12:40:58.746Z,52.68
2022-11-23T12:43:37.487Z,52.33
2022-11-23T12:46:14.899Z,52.51
2022-11-23T12:49:01.281Z,52.91
2022-11-23T12:51:41.029Z,52.74
2022-11-23T12:54:39.816Z,52.50
2022-11-23T12:57:18.353Z,52.85
2022-11-23T12:59:50.809Z,52.79
2022-11-23T13:03:02.249Z,52.08
2022-11-23T13:06:24.796Z,52.35
2022-11-23T13:09:34.122Z,52.47
2022-11-23T13:12:25.643Z,52.52
2022-11-23T13:15:10.680Z,51.25
2022-11-23T13:17:53.283Z,51.16
2022-11-23T13:20:42.164Z,51.16
2022-11-23T13:23:10.251Z,51.18
2022-11-23T13:25:37.819Z,51.56
2022-11-23T13:28:29.220Z,51.35
2022-11-23T13:31:26.347Z,51.55
2022-11-23T13:33:58.332Z,51.34
2022-11-23T13:37:11.705Z,51.38
2022-11-23T13:40:20.953Z,50.74
2022-11-23T13:42:50.184Z,51.08
2022-11-23T13:45:33.861Z,50.98
2022-11-23T13:48:48.839Z,51.36
2022-11-23T13:51:09.614Z,51.56
2022-11-23T13:53:41.057Z,51.67
2022-11-23T13:56:27.434Z,51.93
2022-11-23T13:58:56.621Z,51.77
2022-11-23T14:01:59.375Z,52.10
2022-11-23T14:04:28.330Z,51.70
2022-11-23T14:07:02.236Z,51.86
2022-11-23T14:09:36.915Z,51.77
2022-11-23T14:12:17.097Z,51.86
2022-11-23T14:15:01.076Z,51.96
2022-11-23T14:18:14.392Z,52.47
2022-11-23T14:21:07.567Z,52.57
2022-11-23T14:24:21.158Z,52.29
2022-11-23T14:27:30.893Z,52.63
2022-11-23T14:30:28.906Z,52.18
2022-11-23T14:33:27.182Z,52.14
2022-11-23T14:36:10.000Z,52.99
2022-11-23T14:39:32.884Z,52.41
2022-11-23T14:42:10.285Z,52.38
2022-11-23T14:44:42.393Z,52.51
2022-11-23T14:47:12.107Z,52.59
2022-11-23T14:49:50.805Z,52.69
2022-11-23T14:52:22.837Z,52.73
2022-11-23T14:54:55.118Z,53.02
2022-11-23T14:57:39.436Z,52.98
2022-11-23T15:00:24.187Z,52.67
2022-11-23T15:02:53.386Z,53.14
2022-11-23T15:05:28.331Z,53.03
2022-11-23T15:08:02.344Z,53.07
2022-11-23T15:10:42.584Z,53.42
2022-11-23T15:13:21.853Z,53.33
2022-11-23T15:15:52.427Z,53.14
2022-11-23T15:18:34.545Z,53.09
2022-11-23T15:21:07.849Z,53.16
2022-11-23T15:23:39.893Z,52.82
2022-11-23T15:26:34.740Z,53.22
2022-11-23T15:29:04.846Z,52.96
2022-11-23T15:31:36.085Z,52.84
2022-11-23T15:34:13.853Z,52.87
2022-11-23T15:36:42.555Z,53.21
2022-11-23T15:39:18.106Z,53.14
2022-11-23T15:41:49.444Z,53.33
2022-11-23T15:44:24.682Z,53.08
2022-11-23T15:46:54.487Z,53.62
2022-11-23T15:49:23.941Z,53.59
2022-11-23T15:51:53.212Z,53.85
2022-11-23T15:54:25.589Z,53.91
2022-11-23T15:56:58.474Z,53.90
2022-11-23T15:59:34.958Z,54.03
2022-11-23T16:02:07.115Z,54.05
2022-11-23T16:04:38.818Z,54.24
2022-11-23T16:07:19.001Z,54.16
2022-11-23T16:09:51.892Z,54.23
2022-11-23T16:12:27.945Z,54.03
2022-11-23T16:14:57.386Z,54.04
2022-11-23T16:17:26.661Z,54.11
2022-11-23T16:19:55.961Z,53.95
2022-11-23T16:22:29.603Z,53.63
2022-11-23T16:25:07.881Z,53.64
2022-11-23T16:27:37.155Z,53.59
2022-11-23T16:30:05.875Z,53.52
2022-11-23T16:32:32.891Z,53.49
2022-11-23T16:35:16.365Z,53.38
2022-11-23T16:37:43.567Z,53.38
2022-11-23T16:40:12.051Z,53.33
2022-11-23T16:42:40.575Z,53.23
2022-11-23T16:45:09.742Z,53.02
2022-11-23T16:47:53.086Z,53.29
2022-11-23T16:50:20.142Z,53.23
2022-11-23T16:52:47.445Z,53.27
2022-11-23T16:55:14.491Z,53.25
2022-11-23T16:57:44.085Z,53.11
2022-11-23T17:00:16.888Z,53.11
2022-11-23T17:02:44.060Z,53.13
2022-11-23T17:05:15.686Z,53.27
2022-11-23T17:07:43.195Z,52.91
2022-11-23T17:10:10.615Z,53.21
2022-11-23T17:12:39.294Z,52.72
2022-11-23T17:15:12.588Z,52.95
2022-11-23T17:17:39.589Z,52.92
2022-11-23T17:20:12.018Z,52.80
2022-11-23T17:22:39.148Z,52.93
2022-11-23T17:25:11.677Z,52.85
2022-11-23T17:27:43.600Z,53.26
2022-11-23T17:30:15.557Z,53.06
2022-11-23T17:32:42.804Z,53.11
2022-11-23T17:35:10.014Z,52.12
2022-11-23T17:37:37.363Z,52.53
2022-11-23T17:40:12.902Z,52.60
2022-11-23T17:42:39.839Z,52.69
2022-11-23T17:45:07.912Z,53.00
2022-11-23T17:47:38.033Z,52.28
2022-11-23T17:50:07.295Z,51.32
2022-11-23T17:52:34.242Z,52.13
2022-11-23T17:55:01.193Z,52.24
2022-11-23T17:57:28.195Z,52.28
2022-11-23T17:59:58.225Z,52.45
2022-11-23T18:02:27.955Z,51.81
2022-11-23T18:04:56.280Z,52.16
2022-11-23T18:07:23.270Z,52.47
2022-11-23T18:09:50.375Z,52.53
2022-11-23T18:12:17.671Z,52.43
2022-11-23T18:14:44.579Z,52.67
2022-11-23T18:17:11.578Z,52.74
2022-11-23T18:19:38.615Z,52.97
2022-11-23T18:22:06.990Z,52.89
2022-11-23T18:24:33.942Z,52.99
2022-11-23T18:27:00.883Z,52.93
2022-11-23T18:29:27.949Z,53.34
2022-11-23T18:31:54.867Z,53.38
2022-11-23T18:34:21.791Z,53.36
2022-11-23T18:36:48.720Z,53.82
2022-11-23T18:39:17.001Z,53.76
2022-11-23T18:41:43.932Z,53.59
2022-11-23T18:44:10.867Z,53.58
2022-11-23T18:46:37.901Z,53.80
2022-11-23T18:49:05.140Z,53.56
2022-11-23T18:51:32.170Z,53.72
2022-11-23T18:53:59.240Z,54.03
2022-11-23T18:56:27.536Z,54.01
2022-11-23T18:58:54.451Z,54.07
2022-11-23T19:01:23.757Z,54.05
2022-11-23T19:03:53.363Z,53.64
2022-11-23T19:06:22.859Z,53.79
2022-11-23T19:08:57.319Z,53.60
2022-11-23T19:11:28.479Z,53.59
2022-11-23T19:13:58.183Z,53.54
2022-11-23T19:16:29.885Z,53.21
2022-11-23T19:18:59.184Z,53.14
2022-11-23T19:21:28.530Z,53.37
2022-11-23T19:23:57.727Z,53.09
2022-11-23T19:26:27.689Z,53.57
2022-11-23T19:28:56.056Z,53.40
2022-11-23T19:31:26.461Z,53.14
2022-11-23T19:33:58.399Z,53.17
2022-11-23T19:36:25.968Z,52.96
2022-11-23T19:38:55.152Z,53.14
2022-11-23T19:41:28.188Z,52.98
2022-11-23T19:44:00.859Z,52.86
2022-11-23T19:46:29.180Z,52.45
2022-11-23T19:48:57.308Z,52.74
2022-11-23T19:51:26.233Z,52.67
2022-11-23T19:53:57.497Z,52.67
2022-11-23T19:56:27.459Z,52.88
2022-11-23T19:58:56.779Z,52.58
2022-11-23T20:01:28.071Z,52.93
2022-11-23T20:03:59.669Z,52.66
2022-11-23T20:06:30.947Z,52.28
2022-11-23T20:09:00.513Z,52.76
2022-11-23T20:11:30.292Z,52.25
2022-11-23T20:13:58.718Z,52.60
2022-11-23T20:16:31.110Z,52.63
2022-11-23T20:19:01.291Z,52.88
2022-11-23T20:21:30.115Z,51.43
2022-11-23T20:24:04.486Z,51.86
2022-11-23T20:26:33.977Z,51.96
2022-11-23T20:29:01.082Z,52.31
2022-11-23T20:31:32.378Z,52.07
2022-11-23T20:34:00.251Z,52.12
2022-11-23T20:36:29.888Z,52.20
2022-11-23T20:39:00.514Z,52.44
2022-11-23T20:41:30.936Z,52.42
2022-11-23T20:44:00.571Z,52.88
2022-11-23T20:47:00.524Z,52.95
2022-11-23T20:49:18.623Z,52.95
2022-11-23T20:51:45.630Z,53.01
2022-11-23T20:54:12.770Z,53.17
2022-11-23T20:56:39.739Z,53.56
2022-11-23T20:59:06.951Z,54.06
2022-11-23T21:01:35.273Z,53.96
2022-11-23T21:04:02.498Z,54.26
2022-11-23T21:06:31.448Z,54.47
2022-11-23T21:09:01.739Z,55.20
2022-11-23T21:11:48.174Z,55.58
2022-11-23T21:14:18.606Z,56.04
2022-11-23T21:16:52.958Z,56.69
2022-11-23T21:19:22.500Z,56.90
2022-11-23T21:21:49.888Z,57.18
2022-11-23T21:24:17.215Z,57.32
2022-11-23T21:26:44.631Z,57.69
2022-11-23T21:29:11.654Z,57.53
2022-11-23T21:31:42.200Z,57.92
2022-11-23T21:34:18.293Z,58.20
2022-11-23T21:36:45.850Z,58.40
2022-11-23T21:39:14.090Z,58.52
2022-11-23T21:41:41.377Z,58.57
2022-11-23T21:44:10.381Z,58.67
2022-11-23T21:46:39.829Z,59.18
2022-11-23T21:49:07.733Z,59.45
2022-11-23T21:51:37.737Z,59.49
2022-11-23T21:54:07.413Z,59.21
2022-11-23T21:56:34.462Z,59.39
2022-11-23T21:59:01.916Z,59.47
2022-11-23T22:01:31.602Z,59.55
2022-11-23T22:04:02.395Z,59.98
2022-11-23T22:06:30.384Z,60.03
2022-11-23T22:09:02.164Z,59.86
2022-11-23T22:11:31.886Z,60.01
2022-11-23T22:14:01.459Z,59.86
2022-11-23T22:16:30.983Z,59.77
2022-11-23T22:18:59.044Z,59.77
2022-11-23T22:21:31.896Z,59.53
2022-11-23T22:24:01.275Z,60.11
2022-11-23T22:26:28.597Z,59.95
2022-11-23T22:28:56.811Z,60.21
2022-11-23T22:31:25.511Z,60.23
2022-11-23T22:33:53.379Z,60.18
2022-11-23T22:36:23.123Z,60.03
2022-11-23T22:39:01.077Z,60.17
2022-11-23T22:41:39.120Z,60.07
2022-11-23T22:44:08.969Z,59.95
2022-11-23T22:46:37.214Z,59.94
2022-11-23T22:49:04.901Z,60.20
2022-11-23T22:51:32.291Z,60.37
2022-11-23T22:54:01.032Z,60.14
2022-11-23T22:56:30.987Z,60.18
2022-11-23T22:58:58.809Z,59.95
2022-11-23T23:01:28.383Z,60.20
2022-11-23T23:03:57.999Z,60.13
2022-11-23T23:06:28.273Z,60.01
2022-11-23T23:08:57.934Z,59.93
2022-11-23T23:11:27.972Z,60.30
2022-11-23T23:13:57.391Z,60.34
2022-11-23T23:16:25.762Z,60.33
2022-11-23T23:18:56.748Z,60.21
2022-11-23T23:21:26.210Z,60.13
2022-11-23T23:23:56.015Z,60.33
2022-11-23T23:26:25.053Z,60.25
2022-11-23T23:28:56.402Z,60.54
2022-11-23T23:31:24.082Z,60.59
2022-11-23T23:33:53.409Z,60.60
2022-11-23T23:36:22.932Z,60.75
2022-11-23T23:38:50.937Z,60.64
2022-11-23T23:41:18.185Z,61.21
2022-11-23T23:43:45.220Z,60.74
2022-11-23T23:46:13.776Z,60.74
2022-11-23T23:48:41.578Z,60.57
2022-11-23T23:51:12.495Z,60.88
2022-11-23T23:53:40.575Z,60.53
2022-11-23T23:56:12.935Z,60.68
2022-11-23T23:58:39.973Z,61.09
